sensor_id;sensor_type;location;lat;lon;timestamp;P1;durP1;ratioP1;P2;durP2;ratioP2
46675;SDS011;32412;51.478;5.694;2022-10-16T00:01:47;5.47;;;3.70;;
46675;SDS011;32412;51.478;5.694;2022-10-16T00:04:12;5.47;;;3.53;;
46675;SDS011;32412;51.478;5.694;2022-10-16T00:06:38;6.75;;;3.67;;
46675;SDS011;32412;51.478;5.694;2022-10-16T00:09:05;5.13;;;3.58;;
46675;SDS011;32412;51.478;5.694;2022-10-16T00:11:32;5.68;;;3.40;;
46675;SDS011;32412;51.478;5.694;2022-10-16T00:14:02;5.00;;;3.38;;
46675;SDS011;32412;51.478;5.694;2022-10-16T00:16:29;5.93;;;3.25;;
46675;SDS011;32412;51.478;5.694;2022-10-16T00:18:55;7.20;;;3.55;;
46675;SDS011;32412;51.478;5.694;2022-10-16T00:21:23;6.55;;;3.67;;
46675;SDS011;32412;51.478;5.694;2022-10-16T00:23:51;6.40;;;3.47;;
46675;SDS011;32412;51.478;5.694;2022-10-16T00:26:18;6.22;;;3.38;;
46675;SDS011;32412;51.478;5.694;2022-10-16T00:28:48;5.82;;;3.50;;
46675;SDS011;32412;51.478;5.694;2022-10-16T00:31:14;5.72;;;3.47;;
46675;SDS011;32412;51.478;5.694;2022-10-16T00:33:41;6.10;;;3.70;;
46675;SDS011;32412;51.478;5.694;2022-10-16T00:36:07;4.45;;;3.15;;
46675;SDS011;32412;51.478;5.694;2022-10-16T00:38:36;6.43;;;3.25;;
46675;SDS011;32412;51.478;5.694;2022-10-16T00:41:06;5.03;;;3.30;;
46675;SDS011;32412;51.478;5.694;2022-10-16T00:46:01;4.47;;;3.45;;
46675;SDS011;32412;51.478;5.694;2022-10-16T00:48:28;5.97;;;3.00;;
46675;SDS011;32412;51.478;5.694;2022-10-16T00:50:55;4.25;;;3.50;;
46675;SDS011;32412;51.478;5.694;2022-10-16T00:53:21;7.78;;;3.10;;
46675;SDS011;32412;51.478;5.694;2022-10-16T00:55:51;5.93;;;3.95;;
46675;SDS011;32412;51.478;5.694;2022-10-16T00:58:17;6.40;;;3.20;;
46675;SDS011;32412;51.478;5.694;2022-10-16T01:00:42;7.03;;;3.33;;
46675;SDS011;32412;51.478;5.694;2022-10-16T01:03:25;6.50;;;3.58;;
46675;SDS011;32412;51.478;5.694;2022-10-16T01:09:21;4.13;;;2.85;;
46675;SDS011;32412;51.478;5.694;2022-10-16T01:11:28;7.80;;;2.90;;
46675;SDS011;32412;51.478;5.694;2022-10-16T01:14:07;7.28;;;3.13;;
46675;SDS011;32412;51.478;5.694;2022-10-16T01:16:43;4.38;;;2.80;;
46675;SDS011;32412;51.478;5.694;2022-10-16T01:19:26;8.68;;;3.30;;
46675;SDS011;32412;51.478;5.694;2022-10-16T01:22:04;5.65;;;2.97;;
46675;SDS011;32412;51.478;5.694;2022-10-16T01:24:41;3.90;;;2.90;;
46675;SDS011;32412;51.478;5.694;2022-10-16T01:27:13;4.07;;;3.15;;
46675;SDS011;32412;51.478;5.694;2022-10-16T01:29:49;3.22;;;2.70;;
46675;SDS011;32412;51.478;5.694;2022-10-16T01:32:18;3.88;;;2.67;;
46675;SDS011;32412;51.478;5.694;2022-10-16T01:37:46;3.42;;;2.65;;
46675;SDS011;32412;51.478;5.694;2022-10-16T01:40:21;3.90;;;2.85;;
46675;SDS011;32412;51.478;5.694;2022-10-16T01:42:59;5.70;;;3.05;;
46675;SDS011;32412;51.478;5.694;2022-10-16T01:45:37;5.15;;;2.70;;
46675;SDS011;32412;51.478;5.694;2022-10-16T01:48:05;4.57;;;2.40;;
46675;SDS011;32412;51.478;5.694;2022-10-16T01:50:35;4.03;;;2.72;;
46675;SDS011;32412;51.478;5.694;2022-10-16T01:53:05;4.22;;;2.50;;
46675;SDS011;32412;51.478;5.694;2022-10-16T01:55:35;5.07;;;2.55;;
46675;SDS011;32412;51.478;5.694;2022-10-16T01:58:03;3.38;;;2.30;;
46675;SDS011;32412;51.478;5.694;2022-10-16T02:00:32;12.27;;;2.92;;
46675;SDS011;32412;51.478;5.694;2022-10-16T02:02:58;2.97;;;2.22;;
46675;SDS011;32412;51.478;5.694;2022-10-16T02:05:31;3.95;;;2.50;;
46675;SDS011;32412;51.478;5.694;2022-10-16T02:07:58;3.88;;;2.60;;
46675;SDS011;32412;51.478;5.694;2022-10-16T02:10:24;2.60;;;2.13;;
46675;SDS011;32412;51.478;5.694;2022-10-16T02:12:52;4.50;;;2.53;;
46675;SDS011;32412;51.478;5.694;2022-10-16T02:15:23;3.78;;;2.15;;
46675;SDS011;32412;51.478;5.694;2022-10-16T02:17:49;8.35;;;2.53;;
46675;SDS011;32412;51.478;5.694;2022-10-16T02:20:16;5.07;;;2.85;;
46675;SDS011;32412;51.478;5.694;2022-10-16T02:22:43;4.65;;;3.05;;
46675;SDS011;32412;51.478;5.694;2022-10-16T02:25:19;6.13;;;4.00;;
46675;SDS011;32412;51.478;5.694;2022-10-16T02:27:55;7.22;;;3.90;;
46675;SDS011;32412;51.478;5.694;2022-10-16T02:30:36;3.85;;;3.15;;
46675;SDS011;32412;51.478;5.694;2022-10-16T02:33:02;4.05;;;3.08;;
46675;SDS011;32412;51.478;5.694;2022-10-16T02:35:31;4.95;;;2.60;;
46675;SDS011;32412;51.478;5.694;2022-10-16T02:37:57;4.03;;;2.88;;
46675;SDS011;32412;51.478;5.694;2022-10-16T02:40:24;2.55;;;2.15;;
46675;SDS011;32412;51.478;5.694;2022-10-16T02:42:54;6.38;;;2.28;;
46675;SDS011;32412;51.478;5.694;2022-10-16T02:45:21;8.95;;;2.38;;
46675;SDS011;32412;51.478;5.694;2022-10-16T02:47:47;6.60;;;2.40;;
46675;SDS011;32412;51.478;5.694;2022-10-16T02:50:13;4.30;;;2.10;;
46675;SDS011;32412;51.478;5.694;2022-10-16T02:52:39;2.35;;;2.15;;
46675;SDS011;32412;51.478;5.694;2022-10-16T02:55:05;3.10;;;2.15;;
46675;SDS011;32412;51.478;5.694;2022-10-16T02:57:31;2.83;;;2.13;;
46675;SDS011;32412;51.478;5.694;2022-10-16T02:59:57;4.53;;;2.30;;
46675;SDS011;32412;51.478;5.694;2022-10-16T03:02:23;6.25;;;2.70;;
46675;SDS011;32412;51.478;5.694;2022-10-16T03:04:49;3.35;;;2.08;;
46675;SDS011;32412;51.478;5.694;2022-10-16T03:07:14;7.68;;;2.38;;
46675;SDS011;32412;51.478;5.694;2022-10-16T03:09:40;2.05;;;1.85;;
46675;SDS011;32412;51.478;5.694;2022-10-16T03:12:06;4.75;;;2.00;;
46675;SDS011;32412;51.478;5.694;2022-10-16T03:14:32;4.97;;;2.38;;
46675;SDS011;32412;51.478;5.694;2022-10-16T03:16:58;3.22;;;2.30;;
46675;SDS011;32412;51.478;5.694;2022-10-16T03:19:23;2.97;;;2.30;;
46675;SDS011;32412;51.478;5.694;2022-10-16T03:21:49;3.88;;;2.10;;
46675;SDS011;32412;51.478;5.694;2022-10-16T03:24:15;5.82;;;2.30;;
46675;SDS011;32412;51.478;5.694;2022-10-16T03:26:40;5.07;;;2.13;;
46675;SDS011;32412;51.478;5.694;2022-10-16T03:29:06;2.80;;;1.90;;
46675;SDS011;32412;51.478;5.694;2022-10-16T03:31:32;3.03;;;2.20;;
46675;SDS011;32412;51.478;5.694;2022-10-16T03:33:58;2.40;;;2.20;;
46675;SDS011;32412;51.478;5.694;2022-10-16T03:36:24;4.60;;;2.30;;
46675;SDS011;32412;51.478;5.694;2022-10-16T03:38:49;2.20;;;2.00;;
46675;SDS011;32412;51.478;5.694;2022-10-16T03:41:15;3.35;;;2.05;;
46675;SDS011;32412;51.478;5.694;2022-10-16T03:43:41;2.75;;;1.88;;
46675;SDS011;32412;51.478;5.694;2022-10-16T03:46:06;3.33;;;1.95;;
46675;SDS011;32412;51.478;5.694;2022-10-16T03:48:32;4.18;;;1.85;;
46675;SDS011;32412;51.478;5.694;2022-10-16T03:50:58;2.38;;;1.95;;
46675;SDS011;32412;51.478;5.694;2022-10-16T03:53:24;2.55;;;2.08;;
46675;SDS011;32412;51.478;5.694;2022-10-16T03:55:50;3.75;;;1.85;;
46675;SDS011;32412;51.478;5.694;2022-10-16T03:58:16;3.75;;;1.92;;
46675;SDS011;32412;51.478;5.694;2022-10-16T04:00:42;5.43;;;2.25;;
46675;SDS011;32412;51.478;5.694;2022-10-16T04:03:09;3.45;;;1.95;;
46675;SDS011;32412;51.478;5.694;2022-10-16T04:05:34;2.63;;;1.80;;
46675;SDS011;32412;51.478;5.694;2022-10-16T04:08:00;3.47;;;1.80;;
46675;SDS011;32412;51.478;5.694;2022-10-16T04:10:26;4.85;;;2.00;;
46675;SDS011;32412;51.478;5.694;2022-10-16T04:12:52;2.33;;;1.77;;
46675;SDS011;32412;51.478;5.694;2022-10-16T04:15:19;3.22;;;2.00;;
46675;SDS011;32412;51.478;5.694;2022-10-16T04:17:45;3.47;;;1.80;;
46675;SDS011;32412;51.478;5.694;2022-10-16T04:20:10;5.43;;;2.00;;
46675;SDS011;32412;51.478;5.694;2022-10-16T04:22:36;7.85;;;1.80;;
46675;SDS011;32412;51.478;5.694;2022-10-16T04:25:02;3.65;;;2.13;;
46675;SDS011;32412;51.478;5.694;2022-10-16T04:27:27;2.45;;;1.80;;
46675;SDS011;32412;51.478;5.694;2022-10-16T04:29:56;3.15;;;1.85;;
46675;SDS011;32412;51.478;5.694;2022-10-16T04:32:22;2.63;;;2.08;;
46675;SDS011;32412;51.478;5.694;2022-10-16T04:34:47;3.38;;;1.92;;
46675;SDS011;32412;51.478;5.694;2022-10-16T04:37:13;3.33;;;2.70;;
46675;SDS011;32412;51.478;5.694;2022-10-16T04:39:39;4.00;;;1.80;;
46675;SDS011;32412;51.478;5.694;2022-10-16T04:42:05;5.55;;;2.78;;
46675;SDS011;32412;51.478;5.694;2022-10-16T04:44:30;4.55;;;2.30;;
46675;SDS011;32412;51.478;5.694;2022-10-16T04:46:56;2.40;;;2.00;;
46675;SDS011;32412;51.478;5.694;2022-10-16T04:49:21;2.15;;;1.80;;
46675;SDS011;32412;51.478;5.694;2022-10-16T04:51:47;3.63;;;1.92;;
46675;SDS011;32412;51.478;5.694;2022-10-16T04:54:13;5.07;;;1.83;;
46675;SDS011;32412;51.478;5.694;2022-10-16T04:56:38;3.15;;;1.75;;
46675;SDS011;32412;51.478;5.694;2022-10-16T04:59:15;4.93;;;1.88;;
46675;SDS011;32412;51.478;5.694;2022-10-16T05:01:42;5.22;;;2.00;;
46675;SDS011;32412;51.478;5.694;2022-10-16T05:04:08;7.20;;;2.05;;
46675;SDS011;32412;51.478;5.694;2022-10-16T05:06:34;1.88;;;1.77;;
46675;SDS011;32412;51.478;5.694;2022-10-16T05:09:00;2.85;;;2.03;;
46675;SDS011;32412;51.478;5.694;2022-10-16T05:11:25;3.45;;;2.00;;
46675;SDS011;32412;51.478;5.694;2022-10-16T05:13:51;2.05;;;1.85;;
46675;SDS011;32412;51.478;5.694;2022-10-16T05:16:16;4.50;;;1.98;;
46675;SDS011;32412;51.478;5.694;2022-10-16T05:18:42;2.42;;;1.80;;
46675;SDS011;32412;51.478;5.694;2022-10-16T05:21:08;3.63;;;2.20;;
46675;SDS011;32412;51.478;5.694;2022-10-16T05:23:34;3.50;;;2.08;;
46675;SDS011;32412;51.478;5.694;2022-10-16T05:25:59;2.17;;;1.98;;
46675;SDS011;32412;51.478;5.694;2022-10-16T05:28:26;5.30;;;2.20;;
46675;SDS011;32412;51.478;5.694;2022-10-16T05:30:53;3.45;;;2.20;;
46675;SDS011;32412;51.478;5.694;2022-10-16T05:33:20;2.58;;;2.10;;
46675;SDS011;32412;51.478;5.694;2022-10-16T05:35:46;10.52;;;2.33;;
46675;SDS011;32412;51.478;5.694;2022-10-16T05:38:12;1.88;;;1.77;;
46675;SDS011;32412;51.478;5.694;2022-10-16T05:40:38;6.50;;;2.30;;
46675;SDS011;32412;51.478;5.694;2022-10-16T05:43:04;7.90;;;2.67;;
46675;SDS011;32412;51.478;5.694;2022-10-16T05:45:30;4.60;;;2.40;;
46675;SDS011;32412;51.478;5.694;2022-10-16T05:47:55;3.83;;;2.40;;
46675;SDS011;32412;51.478;5.694;2022-10-16T05:50:21;4.82;;;2.90;;
46675;SDS011;32412;51.478;5.694;2022-10-16T05:52:53;3.45;;;2.08;;
46675;SDS011;32412;51.478;5.694;2022-10-16T05:55:24;6.43;;;2.30;;
46675;SDS011;32412;51.478;5.694;2022-10-16T05:57:54;4.43;;;2.25;;
46675;SDS011;32412;51.478;5.694;2022-10-16T06:00:19;7.60;;;2.50;;
46675;SDS011;32412;51.478;5.694;2022-10-16T06:02:45;6.70;;;2.50;;
46675;SDS011;32412;51.478;5.694;2022-10-16T06:05:11;2.80;;;2.42;;
46675;SDS011;32412;51.478;5.694;2022-10-16T06:07:36;3.58;;;2.63;;
46675;SDS011;32412;51.478;5.694;2022-10-16T06:10:03;3.05;;;2.75;;
46675;SDS011;32412;51.478;5.694;2022-10-16T06:12:29;4.45;;;2.65;;
46675;SDS011;32412;51.478;5.694;2022-10-16T06:14:55;5.00;;;2.70;;
46675;SDS011;32412;51.478;5.694;2022-10-16T06:17:22;3.85;;;2.60;;
46675;SDS011;32412;51.478;5.694;2022-10-16T06:19:47;7.30;;;2.80;;
46675;SDS011;32412;51.478;5.694;2022-10-16T06:22:13;5.47;;;2.67;;
46675;SDS011;32412;51.478;5.694;2022-10-16T06:24:39;4.45;;;2.70;;
46675;SDS011;32412;51.478;5.694;2022-10-16T06:27:04;5.85;;;2.70;;
46675;SDS011;32412;51.478;5.694;2022-10-16T06:29:30;4.03;;;3.05;;
46675;SDS011;32412;51.478;5.694;2022-10-16T06:31:55;2.78;;;2.53;;
46675;SDS011;32412;51.478;5.694;2022-10-16T06:34:21;8.32;;;2.75;;
46675;SDS011;32412;51.478;5.694;2022-10-16T06:36:47;6.07;;;2.58;;
46675;SDS011;32412;51.478;5.694;2022-10-16T06:39:12;3.22;;;2.50;;
46675;SDS011;32412;51.478;5.694;2022-10-16T06:41:38;4.78;;;2.28;;
46675;SDS011;32412;51.478;5.694;2022-10-16T06:44:07;5.05;;;2.72;;
46675;SDS011;32412;51.478;5.694;2022-10-16T06:46:33;8.60;;;2.90;;
46675;SDS011;32412;51.478;5.694;2022-10-16T06:48:59;7.13;;;2.88;;
46675;SDS011;32412;51.478;5.694;2022-10-16T06:51:25;4.18;;;3.05;;
46675;SDS011;32412;51.478;5.694;2022-10-16T06:53:51;11.73;;;3.17;;
46675;SDS011;32412;51.478;5.694;2022-10-16T06:56:23;4.40;;;2.88;;
46675;SDS011;32412;51.478;5.694;2022-10-16T06:58:50;4.35;;;2.58;;
46675;SDS011;32412;51.478;5.694;2022-10-16T07:01:17;4.25;;;2.75;;
46675;SDS011;32412;51.478;5.694;2022-10-16T07:03:44;4.93;;;3.00;;
46675;SDS011;32412;51.478;5.694;2022-10-16T07:06:12;6.55;;;3.50;;
46675;SDS011;32412;51.478;5.694;2022-10-16T07:08:40;3.22;;;2.75;;
46675;SDS011;32412;51.478;5.694;2022-10-16T07:11:08;7.43;;;3.15;;
46675;SDS011;32412;51.478;5.694;2022-10-16T07:13:36;5.72;;;2.83;;
46675;SDS011;32412;51.478;5.694;2022-10-16T07:16:05;4.18;;;2.50;;
46675;SDS011;32412;51.478;5.694;2022-10-16T07:18:31;4.80;;;2.97;;
46675;SDS011;32412;51.478;5.694;2022-10-16T07:21:07;3.58;;;2.47;;
46675;SDS011;32412;51.478;5.694;2022-10-16T07:23:35;4.50;;;2.28;;
46675;SDS011;32412;51.478;5.694;2022-10-16T07:26:00;7.05;;;2.42;;
46675;SDS011;32412;51.478;5.694;2022-10-16T07:28:26;5.80;;;2.30;;
46675;SDS011;32412;51.478;5.694;2022-10-16T07:30:52;6.43;;;2.78;;
46675;SDS011;32412;51.478;5.694;2022-10-16T07:33:18;3.47;;;2.13;;
46675;SDS011;32412;51.478;5.694;2022-10-16T07:35:48;5.85;;;2.30;;
46675;SDS011;32412;51.478;5.694;2022-10-16T07:38:18;4.70;;;2.20;;
46675;SDS011;32412;51.478;5.694;2022-10-16T07:40:44;5.47;;;2.42;;
46675;SDS011;32412;51.478;5.694;2022-10-16T07:43:10;4.60;;;2.35;;
46675;SDS011;32412;51.478;5.694;2022-10-16T07:45:36;10.02;;;2.40;;
46675;SDS011;32412;51.478;5.694;2022-10-16T07:48:02;5.15;;;2.17;;
46675;SDS011;32412;51.478;5.694;2022-10-16T07:50:28;4.90;;;2.78;;
46675;SDS011;32412;51.478;5.694;2022-10-16T07:52:53;7.40;;;3.13;;
46675;SDS011;32412;51.478;5.694;2022-10-16T07:55:19;8.93;;;3.58;;
46675;SDS011;32412;51.478;5.694;2022-10-16T07:57:44;7.68;;;3.75;;
46675;SDS011;32412;51.478;5.694;2022-10-16T08:00:10;7.53;;;2.83;;
46675;SDS011;32412;51.478;5.694;2022-10-16T08:02:39;4.10;;;2.03;;
46675;SDS011;32412;51.478;5.694;2022-10-16T08:05:05;4.60;;;2.30;;
46675;SDS011;32412;51.478;5.694;2022-10-16T08:07:32;3.75;;;1.77;;
46675;SDS011;32412;51.478;5.694;2022-10-16T08:09:57;5.32;;;2.35;;
46675;SDS011;32412;51.478;5.694;2022-10-16T08:12:24;7.63;;;2.30;;
46675;SDS011;32412;51.478;5.694;2022-10-16T08:14:52;5.72;;;2.10;;
46675;SDS011;32412;51.478;5.694;2022-10-16T08:17:18;4.07;;;2.05;;
46675;SDS011;32412;51.478;5.694;2022-10-16T08:19:44;4.50;;;1.80;;
46675;SDS011;32412;51.478;5.694;2022-10-16T08:22:12;3.90;;;1.80;;
46675;SDS011;32412;51.478;5.694;2022-10-16T08:24:38;3.50;;;1.77;;
46675;SDS011;32412;51.478;5.694;2022-10-16T08:27:04;6.25;;;2.30;;
46675;SDS011;32412;51.478;5.694;2022-10-16T08:29:29;7.22;;;1.80;;
46675;SDS011;32412;51.478;5.694;2022-10-16T08:31:58;7.70;;;2.13;;
46675;SDS011;32412;51.478;5.694;2022-10-16T08:34:24;5.60;;;1.60;;
46675;SDS011;32412;51.478;5.694;2022-10-16T08:36:49;5.88;;;1.85;;
46675;SDS011;32412;51.478;5.694;2022-10-16T08:39:19;7.05;;;1.50;;
46675;SDS011;32412;51.478;5.694;2022-10-16T08:47:17;4.95;;;1.77;;
46675;SDS011;32412;51.478;5.694;2022-10-16T08:49:45;9.80;;;1.98;;
46675;SDS011;32412;51.478;5.694;2022-10-16T08:52:18;3.90;;;1.70;;
46675;SDS011;32412;51.478;5.694;2022-10-16T08:54:45;3.80;;;1.52;;
46675;SDS011;32412;51.478;5.694;2022-10-16T08:57:22;7.55;;;1.83;;
46675;SDS011;32412;51.478;5.694;2022-10-16T08:59:50;4.95;;;1.73;;
46675;SDS011;32412;51.478;5.694;2022-10-16T09:04:54;7.65;;;2.22;;
46675;SDS011;32412;51.478;5.694;2022-10-16T09:10:26;6.63;;;1.58;;
46675;SDS011;32412;51.478;5.694;2022-10-16T09:13:36;6.45;;;1.48;;
46675;SDS011;32412;51.478;5.694;2022-10-16T09:21:28;2.58;;;1.27;;
46675;SDS011;32412;51.478;5.694;2022-10-16T09:24:14;7.53;;;1.63;;
46675;SDS011;32412;51.478;5.694;2022-10-16T09:26:42;3.10;;;1.10;;
46675;SDS011;32412;51.478;5.694;2022-10-16T09:29:10;3.45;;;1.35;;
46675;SDS011;32412;51.478;5.694;2022-10-16T09:31:40;3.95;;;1.42;;
46675;SDS011;32412;51.478;5.694;2022-10-16T09:34:11;2.85;;;1.15;;
46675;SDS011;32412;51.478;5.694;2022-10-16T09:36:57;9.05;;;1.30;;
46675;SDS011;32412;51.478;5.694;2022-10-16T09:39:25;4.18;;;1.20;;
46675;SDS011;32412;51.478;5.694;2022-10-16T09:41:51;3.85;;;1.50;;
46675;SDS011;32412;51.478;5.694;2022-10-16T09:44:24;6.20;;;1.25;;
46675;SDS011;32412;51.478;5.694;2022-10-16T09:47:10;10.13;;;1.50;;
46675;SDS011;32412;51.478;5.694;2022-10-16T09:49:55;4.68;;;1.02;;
46675;SDS011;32412;51.478;5.694;2022-10-16T09:52:27;6.35;;;1.80;;
46675;SDS011;32412;51.478;5.694;2022-10-16T09:54:55;5.35;;;1.20;;
46675;SDS011;32412;51.478;5.694;2022-10-16T09:57:26;4.13;;;1.27;;
46675;SDS011;32412;51.478;5.694;2022-10-16T09:59:56;4.10;;;1.42;;
46675;SDS011;32412;51.478;5.694;2022-10-16T10:02:28;7.03;;;1.42;;
46675;SDS011;32412;51.478;5.694;2022-10-16T10:04:56;5.35;;;1.40;;
46675;SDS011;32412;51.478;5.694;2022-10-16T10:07:26;4.55;;;1.05;;
46675;SDS011;32412;51.478;5.694;2022-10-16T10:09:53;5.40;;;1.27;;
46675;SDS011;32412;51.478;5.694;2022-10-16T10:12:22;4.80;;;1.25;;
46675;SDS011;32412;51.478;5.694;2022-10-16T10:14:54;4.93;;;1.30;;
46675;SDS011;32412;51.478;5.694;2022-10-16T10:17:25;3.38;;;1.15;;
46675;SDS011;32412;51.478;5.694;2022-10-16T10:36:01;6.28;;;1.52;;
46675;SDS011;32412;51.478;5.694;2022-10-16T10:38:47;6.00;;;1.50;;
46675;SDS011;32412;51.478;5.694;2022-10-16T10:46:35;6.03;;;1.20;;
46675;SDS011;32412;51.478;5.694;2022-10-16T10:49:16;5.63;;;1.60;;
46675;SDS011;32412;51.478;5.694;2022-10-16T10:57:29;7.03;;;2.03;;
46675;SDS011;32412;51.478;5.694;2022-10-16T11:00:30;6.25;;;1.33;;
46675;SDS011;32412;51.478;5.694;2022-10-16T11:03:11;6.03;;;1.38;;
46675;SDS011;32412;51.478;5.694;2022-10-16T11:08:11;6.40;;;1.65;;
46675;SDS011;32412;51.478;5.694;2022-10-16T11:10:49;7.75;;;1.60;;
46675;SDS011;32412;51.478;5.694;2022-10-16T11:13:26;8.23;;;1.55;;
46675;SDS011;32412;51.478;5.694;2022-10-16T11:16:01;6.40;;;1.23;;
46675;SDS011;32412;51.478;5.694;2022-10-16T11:18:39;5.45;;;1.30;;
46675;SDS011;32412;51.478;5.694;2022-10-16T11:21:14;5.97;;;1.42;;
46675;SDS011;32412;51.478;5.694;2022-10-16T11:23:51;9.85;;;1.60;;
46675;SDS011;32412;51.478;5.694;2022-10-16T11:26:28;4.72;;;1.40;;
46675;SDS011;32412;51.478;5.694;2022-10-16T11:28:58;2.88;;;1.40;;
46675;SDS011;32412;51.478;5.694;2022-10-16T11:32:00;5.95;;;1.00;;
46675;SDS011;32412;51.478;5.694;2022-10-16T11:36:57;4.45;;;1.25;;
46675;SDS011;32412;51.478;5.694;2022-10-16T11:39:24;6.63;;;1.38;;
46675;SDS011;32412;51.478;5.694;2022-10-16T11:42:01;6.60;;;1.17;;
46675;SDS011;32412;51.478;5.694;2022-10-16T11:47:35;5.68;;;2.53;;
46675;SDS011;32412;51.478;5.694;2022-10-16T11:50:13;4.47;;;1.63;;
46675;SDS011;32412;51.478;5.694;2022-10-16T11:52:44;5.80;;;1.15;;
46675;SDS011;32412;51.478;5.694;2022-10-16T11:55:18;4.47;;;1.30;;
46675;SDS011;32412;51.478;5.694;2022-10-16T12:08:51;4.90;;;1.10;;
46675;SDS011;32412;51.478;5.694;2022-10-16T12:11:30;6.50;;;1.27;;
46675;SDS011;32412;51.478;5.694;2022-10-16T12:16:53;6.78;;;1.90;;
46675;SDS011;32412;51.478;5.694;2022-10-16T12:19:27;3.40;;;1.40;;
46675;SDS011;32412;51.478;5.694;2022-10-16T12:22:01;8.80;;;1.52;;
46675;SDS011;32412;51.478;5.694;2022-10-16T12:26:59;3.85;;;1.20;;
46675;SDS011;32412;51.478;5.694;2022-10-16T12:29:35;4.20;;;1.27;;
46675;SDS011;32412;51.478;5.694;2022-10-16T12:32:03;5.70;;;1.20;;
46675;SDS011;32412;51.478;5.694;2022-10-16T12:34:34;7.82;;;1.20;;
46675;SDS011;32412;51.478;5.694;2022-10-16T12:39:58;5.95;;;1.13;;
46675;SDS011;32412;51.478;5.694;2022-10-16T12:44:55;4.70;;;1.13;;
46675;SDS011;32412;51.478;5.694;2022-10-16T12:47:21;7.50;;;1.20;;
46675;SDS011;32412;51.478;5.694;2022-10-16T12:49:52;8.82;;;1.77;;
46675;SDS011;32412;51.478;5.694;2022-10-16T12:52:26;7.22;;;1.30;;
46675;SDS011;32412;51.478;5.694;2022-10-16T12:55:01;2.70;;;0.98;;
46675;SDS011;32412;51.478;5.694;2022-10-16T13:00:32;4.50;;;1.20;;
46675;SDS011;32412;51.478;5.694;2022-10-16T13:03:33;8.70;;;2.17;;
46675;SDS011;32412;51.478;5.694;2022-10-16T13:19:28;1.95;;;0.90;;
46675;SDS011;32412;51.478;5.694;2022-10-16T13:25:02;2.58;;;1.38;;
46675;SDS011;32412;51.478;5.694;2022-10-16T13:30:31;4.13;;;1.48;;
46675;SDS011;32412;51.478;5.694;2022-10-16T13:33:06;3.03;;;1.33;;
46675;SDS011;32412;51.478;5.694;2022-10-16T13:35:55;4.53;;;1.10;;
46675;SDS011;32412;51.478;5.694;2022-10-16T13:38:23;4.68;;;1.27;;
46675;SDS011;32412;51.478;5.694;2022-10-16T13:43:19;5.55;;;1.42;;
46675;SDS011;32412;51.478;5.694;2022-10-16T13:46:10;3.67;;;1.30;;
46675;SDS011;32412;51.478;5.694;2022-10-16T13:48:41;3.58;;;0.98;;
46675;SDS011;32412;51.478;5.694;2022-10-16T13:51:15;4.53;;;1.05;;
46675;SDS011;32412;51.478;5.694;2022-10-16T13:53:42;3.95;;;1.20;;
46675;SDS011;32412;51.478;5.694;2022-10-16T13:56:13;4.85;;;1.10;;
46675;SDS011;32412;51.478;5.694;2022-10-16T13:58:40;11.05;;;0.93;;
46675;SDS011;32412;51.478;5.694;2022-10-16T14:03:48;3.97;;;0.90;;
46675;SDS011;32412;51.478;5.694;2022-10-16T14:06:16;3.45;;;1.08;;
46675;SDS011;32412;51.478;5.694;2022-10-16T14:08:48;6.32;;;1.13;;
46675;SDS011;32412;51.478;5.694;2022-10-16T14:11:24;2.08;;;1.00;;
46675;SDS011;32412;51.478;5.694;2022-10-16T14:13:50;5.75;;;0.95;;
46675;SDS011;32412;51.478;5.694;2022-10-16T14:16:23;2.45;;;1.08;;
46675;SDS011;32412;51.478;5.694;2022-10-16T14:19:03;4.53;;;1.00;;
46675;SDS011;32412;51.478;5.694;2022-10-16T14:21:31;5.50;;;1.30;;
46675;SDS011;32412;51.478;5.694;2022-10-16T14:23:58;3.78;;;1.08;;
46675;SDS011;32412;51.478;5.694;2022-10-16T14:26:27;3.13;;;1.55;;
46675;SDS011;32412;51.478;5.694;2022-10-16T14:29:08;3.80;;;1.42;;
46675;SDS011;32412;51.478;5.694;2022-10-16T14:31:37;3.30;;;1.50;;
46675;SDS011;32412;51.478;5.694;2022-10-16T14:34:04;5.28;;;1.75;;
46675;SDS011;32412;51.478;5.694;2022-10-16T14:36:58;4.72;;;1.20;;
46675;SDS011;32412;51.478;5.694;2022-10-16T14:39:27;3.83;;;1.42;;
46675;SDS011;32412;51.478;5.694;2022-10-16T14:41:55;4.35;;;1.25;;
46675;SDS011;32412;51.478;5.694;2022-10-16T14:44:24;5.32;;;1.50;;
46675;SDS011;32412;51.478;5.694;2022-10-16T14:46:53;7.45;;;1.55;;
46675;SDS011;32412;51.478;5.694;2022-10-16T14:49:19;5.35;;;2.00;;
46675;SDS011;32412;51.478;5.694;2022-10-16T14:51:47;4.97;;;1.27;;
46675;SDS011;32412;51.478;5.694;2022-10-16T14:54:14;2.97;;;1.30;;
46675;SDS011;32412;51.478;5.694;2022-10-16T14:56:51;3.60;;;1.50;;
46675;SDS011;32412;51.478;5.694;2022-10-16T14:59:28;3.60;;;1.10;;
46675;SDS011;32412;51.478;5.694;2022-10-16T15:02:14;3.50;;;1.52;;
46675;SDS011;32412;51.478;5.694;2022-10-16T15:07:44;7.07;;;1.83;;
46675;SDS011;32412;51.478;5.694;2022-10-16T15:10:11;5.20;;;1.70;;
46675;SDS011;32412;51.478;5.694;2022-10-16T15:12:38;5.45;;;1.55;;
46675;SDS011;32412;51.478;5.694;2022-10-16T15:17:47;3.72;;;1.20;;
46675;SDS011;32412;51.478;5.694;2022-10-16T15:20:14;6.60;;;1.83;;
46675;SDS011;32412;51.478;5.694;2022-10-16T15:22:39;5.22;;;1.58;;
46675;SDS011;32412;51.478;5.694;2022-10-16T15:25:12;4.88;;;1.40;;
46675;SDS011;32412;51.478;5.694;2022-10-16T15:28:21;4.28;;;1.30;;
46675;SDS011;32412;51.478;5.694;2022-10-16T15:30:49;5.93;;;1.60;;
46675;SDS011;32412;51.478;5.694;2022-10-16T15:33:20;4.78;;;1.75;;
46675;SDS011;32412;51.478;5.694;2022-10-16T15:35:51;8.25;;;1.77;;
46675;SDS011;32412;51.478;5.694;2022-10-16T15:38:18;5.70;;;1.52;;
46675;SDS011;32412;51.478;5.694;2022-10-16T15:40:45;3.58;;;1.38;;
46675;SDS011;32412;51.478;5.694;2022-10-16T15:43:12;5.10;;;1.40;;
46675;SDS011;32412;51.478;5.694;2022-10-16T15:45:37;6.68;;;1.40;;
46675;SDS011;32412;51.478;5.694;2022-10-16T15:48:03;3.83;;;1.50;;
46675;SDS011;32412;51.478;5.694;2022-10-16T15:50:29;4.40;;;1.40;;
46675;SDS011;32412;51.478;5.694;2022-10-16T15:52:55;5.60;;;1.65;;
46675;SDS011;32412;51.478;5.694;2022-10-16T15:55:21;3.30;;;1.67;;
46675;SDS011;32412;51.478;5.694;2022-10-16T15:57:47;4.43;;;1.50;;
46675;SDS011;32412;51.478;5.694;2022-10-16T16:00:13;6.95;;;1.90;;
46675;SDS011;32412;51.478;5.694;2022-10-16T16:02:41;4.10;;;1.50;;
46675;SDS011;32412;51.478;5.694;2022-10-16T16:05:08;6.72;;;2.00;;
46675;SDS011;32412;51.478;5.694;2022-10-16T16:07:36;6.78;;;1.83;;
46675;SDS011;32412;51.478;5.694;2022-10-16T16:10:03;3.88;;;1.75;;
46675;SDS011;32412;51.478;5.694;2022-10-16T16:12:30;4.53;;;2.00;;
46675;SDS011;32412;51.478;5.694;2022-10-16T16:14:57;4.82;;;1.85;;
46675;SDS011;32412;51.478;5.694;2022-10-16T16:17:23;5.05;;;2.20;;
46675;SDS011;32412;51.478;5.694;2022-10-16T16:19:49;2.85;;;1.45;;
46675;SDS011;32412;51.478;5.694;2022-10-16T16:22:15;4.40;;;1.98;;
46675;SDS011;32412;51.478;5.694;2022-10-16T16:24:41;7.38;;;2.13;;
46675;SDS011;32412;51.478;5.694;2022-10-16T16:27:07;4.85;;;1.85;;
46675;SDS011;32412;51.478;5.694;2022-10-16T16:29:34;4.78;;;2.17;;
46675;SDS011;32412;51.478;5.694;2022-10-16T16:32:01;3.65;;;2.10;;
46675;SDS011;32412;51.478;5.694;2022-10-16T16:34:27;5.68;;;2.30;;
46675;SDS011;32412;51.478;5.694;2022-10-16T16:36:53;4.88;;;2.28;;
46675;SDS011;32412;51.478;5.694;2022-10-16T16:39:20;6.03;;;2.15;;
46675;SDS011;32412;51.478;5.694;2022-10-16T16:41:46;6.65;;;2.10;;
46675;SDS011;32412;51.478;5.694;2022-10-16T16:44:12;9.50;;;2.40;;
46675;SDS011;32412;51.478;5.694;2022-10-16T16:46:39;5.53;;;2.53;;
46675;SDS011;32412;51.478;5.694;2022-10-16T16:49:08;9.90;;;3.17;;
46675;SDS011;32412;51.478;5.694;2022-10-16T16:51:36;9.25;;;3.55;;
46675;SDS011;32412;51.478;5.694;2022-10-16T16:54:02;8.52;;;4.28;;
46675;SDS011;32412;51.478;5.694;2022-10-16T16:56:28;7.30;;;3.90;;